.
WxDataArchive / Data Records for 2006-05-26
2006-05-25 May 2006 2006-05-27

Data Records for Friday, 26 May 2006

Time	Temp	Chill	HIndex	Humid	Dewpt	 Wind 	HiWind	WindDir	Rain 	Barom 
-----	----	-----	------	-----	-----	------	------	-------	-----	----- 
00:00	63.4	63.4	63.4	92	61.0	1	3	248	0.00	29.498 
00:05	63.4	63.4	63.4	92	61.0	1	3	248	0.00	29.498 
00:10	63.4	63.4	63.4	92	61.0	1	3	248	0.00	29.498 
00:15	63.4	63.4	63.4	92	61.0	1	3	248	0.00	29.497 
00:20	63.4	63.4	63.4	92	61.0	0	3	248	0.00	29.497 
00:25	63.4	63.4	63.4	92	61.0	0	1	248	0.00	29.497 
00:30	63.4	63.4	63.4	92	61.0	1	3	248	0.00	29.492 
00:35	63.4	63.4	63.4	92	61.0	0	2	248	0.00	29.492 
00:40	63.4	63.4	63.4	92	61.0	0	1	248	0.00	29.492 
00:45	63.2	63.2	63.2	92	60.8	0	1	248	0.00	29.486 
00:50	63.2	63.2	63.2	92	60.8	0	0	---	0.00	29.486 
00:55	63.2	63.2	63.2	92	60.8	0	1	248	0.00	29.486 
01:00	63.2	63.2	63.2	92	60.8	0	1	248	0.00	29.486 
01:05	63.1	63.1	63.1	92	60.7	0	1	248	0.00	29.486 
01:10	62.9	62.9	62.9	92	60.5	0	1	248	0.00	29.486 
01:15	62.9	62.9	62.9	92	60.5	0	1	248	0.00	29.485 
01:20	62.9	62.9	62.9	92	60.5	0	2	248	0.00	29.485 
01:25	62.9	62.9	62.9	93	60.8	0	2	248	0.00	29.485 
01:30	62.9	62.9	62.9	93	60.8	1	4	248	0.00	29.486 
01:35	63.1	63.1	63.1	93	61.0	1	4	248	0.00	29.486 
01:40	63.2	63.2	63.2	93	61.1	1	3	248	0.00	29.486 
01:45	63.4	63.4	63.4	93	61.3	1	4	248	0.00	29.483 
01:50	63.5	63.5	63.5	93	61.4	1	3	248	0.01	29.483 
01:55	63.5	63.5	63.5	93	61.4	1	4	248	0.00	29.483 
02:00	63.5	63.5	63.5	93	61.4	1	3	248	0.01	29.484 
02:05	63.5	63.5	63.5	93	61.4	1	5	248	0.00	29.484 
02:10	63.5	63.5	63.5	93	61.4	1	4	248	0.01	29.484 
02:15	63.5	63.5	63.5	94	61.7	1	4	248	0.01	29.474 
02:20	63.5	63.5	63.5	94	61.7	1	4	292	0.00	29.474 
02:25	63.5	63.5	63.5	94	61.7	1	2	270	0.01	29.474 
02:30	63.5	63.5	63.5	94	61.7	1	3	270	0.00	29.471 
02:35	63.5	63.5	63.5	94	61.7	1	5	248	0.00	29.471 
02:40	63.7	63.7	63.7	94	61.9	1	4	248	0.00	29.471 
02:45	63.7	63.7	63.7	94	61.9	1	3	248	0.00	29.470 
02:50	63.7	63.7	63.7	94	61.9	1	4	248	0.00	29.470 
02:55	63.7	63.7	63.7	94	61.9	1	3	248	0.04	29.470 
03:00	63.7	63.7	63.7	95	62.2	1	4	248	0.02	29.469 
03:05	63.7	63.7	63.7	95	62.2	1	3	248	0.02	29.469 
03:10	63.7	63.7	63.7	95	62.2	0	2	248	0.00	29.469 
03:15	63.7	63.7	63.7	95	62.2	1	3	248	0.00	29.457 
03:20	63.7	63.7	63.7	95	62.2	1	3	248	0.00	29.457 
03:25	63.7	63.7	63.7	95	62.2	0	2	248	0.00	29.457 
03:30	63.7	63.7	63.7	95	62.2	1	3	248	0.00	29.457 
03:35	63.7	63.7	63.7	95	62.2	1	2	248	0.00	29.457 
03:40	63.7	63.7	63.7	95	62.2	1	3	248	0.00	29.457 
03:45	63.7	63.7	63.7	95	62.2	1	2	248	0.00	29.457 
03:50	63.9	63.9	63.9	95	62.4	1	2	248	0.00	29.457 
03:55	63.9	63.9	63.9	95	62.4	1	2	248	0.00	29.457 
04:00	63.9	63.9	63.9	95	62.4	0	1	248	0.00	29.458 
04:05	63.9	63.9	63.9	95	62.4	0	2	248	0.00	29.458 
04:10	64.0	64.0	64.0	95	62.5	1	3	248	0.00	29.458 
04:15	64.0	64.0	64.0	95	62.5	1	3	248	0.00	29.453 
04:20	64.0	64.0	64.0	95	62.5	1	3	248	0.00	29.453 
04:25	64.0	64.0	64.0	95	62.5	1	3	248	0.00	29.453 
04:30	64.0	64.0	64.0	95	62.5	1	2	248	0.00	29.453 
04:35	64.0	64.0	64.0	95	62.5	1	3	248	0.00	29.453 
04:40	64.0	64.0	64.0	95	62.5	1	3	270	0.00	29.453 
04:45	64.2	64.2	64.2	95	62.7	1	3	270	0.00	29.454 
04:50	64.2	64.2	64.2	95	62.7	1	3	248	0.00	29.454 
04:55	64.2	64.2	64.2	95	62.7	2	3	248	0.00	29.454 
05:00	64.2	64.2	64.2	95	62.7	1	3	248	0.00	29.454 
05:05	64.3	64.3	64.3	95	62.8	1	2	248	0.00	29.454 
05:10	64.3	64.3	64.3	95	62.8	1	4	248	0.00	29.454 
05:15	64.3	64.3	64.3	95	62.8	1	2	248	0.00	29.461 
05:20	64.3	64.3	64.3	95	62.8	1	2	248	0.00	29.461 
05:25	64.3	64.3	64.3	95	62.8	1	4	248	0.00	29.461 
05:30	64.3	64.3	64.3	95	62.8	1	3	248	0.00	29.460 
05:35	64.3	64.3	64.3	95	62.8	1	3	248	0.00	29.460 
05:40	64.3	64.3	64.3	95	62.8	1	3	248	0.00	29.460 
05:45	64.5	64.5	64.5	95	63.0	2	4	248	0.00	29.463 
05:50	64.5	64.5	64.5	95	63.0	1	3	248	0.00	29.463 
05:55	64.5	64.5	64.5	95	63.0	1	3	248	0.00	29.463 
06:00	64.5	64.5	64.5	95	63.0	1	4	270	0.00	29.461 
06:05	64.5	64.5	64.5	95	63.0	1	3	248	0.00	29.461 
06:10	64.5	64.5	64.5	95	63.0	1	4	248	0.00	29.461 
06:15	64.5	64.5	64.5	95	63.0	1	3	248	0.00	29.478 
06:20	64.7	64.7	64.7	95	63.2	1	3	248	0.00	29.478 
06:25	64.7	64.7	64.7	95	63.2	1	3	248	0.00	29.478 
06:30	64.7	64.7	64.7	95	63.2	1	4	248	0.00	29.483 
06:35	64.7	64.7	64.7	95	63.2	1	4	248	0.00	29.483 
06:40	64.5	64.5	64.5	95	63.0	1	3	248	0.00	29.483 
06:45	64.5	64.5	64.5	95	63.0	1	2	270	0.00	29.490 
06:50	64.5	64.5	64.5	95	63.0	1	2	270	0.00	29.490 
06:55	64.5	64.5	64.5	95	63.0	1	3	248	0.00	29.490 
07:00	64.5	64.5	64.5	95	63.0	1	3	248	0.00	29.497 
07:05	64.5	64.5	64.5	94	62.7	1	3	225	0.00	29.497 
07:10	64.5	64.5	64.5	94	62.7	1	3	292	0.00	29.497 
07:15	64.5	64.5	64.5	94	62.7	1	3	248	0.00	29.505 
07:20	64.5	64.5	64.5	94	62.7	1	4	248	0.00	29.505 
07:25	64.7	64.7	64.7	94	62.9	1	4	248	0.00	29.505 
07:30	64.7	64.7	64.7	94	62.9	1	3	248	0.00	29.512 
07:35	64.7	64.7	64.7	94	62.9	1	3	248	0.00	29.512 
07:40	64.8	64.8	64.8	94	63.0	1	3	248	0.00	29.512 
07:45	64.8	64.8	64.8	94	63.0	2	4	248	0.00	29.514 
07:50	64.8	64.8	64.8	94	63.0	2	4	248	0.00	29.514 
07:55	64.8	64.8	64.8	94	63.0	1	3	248	0.00	29.514 
08:00	65.0	65.0	65.0	94	63.2	1	3	248	0.00	29.517 
08:05	65.0	65.0	65.0	93	62.9	1	4	248	0.00	29.517 
08:10	65.0	65.0	65.0	93	62.9	1	3	248	0.00	29.517 
08:15	65.0	65.0	65.0	93	62.9	1	3	248	0.00	29.523 
08:20	65.2	65.2	65.2	93	63.1	1	3	248	0.00	29.523 
08:25	65.2	65.2	65.2	93	63.1	2	3	248	0.00	29.523 
08:30	65.3	65.3	65.3	92	62.9	2	5	248	0.00	29.520 
08:35	65.5	65.5	65.5	92	63.1	2	4	248	0.00	29.520 
08:40	65.6	65.6	65.6	92	63.2	1	3	248	0.00	29.520 
08:45	65.8	65.8	65.8	92	63.4	1	3	248	0.00	29.525 
08:50	66.0	66.0	66.0	91	63.3	1	3	248	0.00	29.525 
08:55	66.1	66.1	66.1	91	63.4	1	3	248	0.00	29.525 
09:00	66.1	66.1	66.1	90	63.1	2	4	248	0.00	29.528 
09:05	66.4	66.4	66.4	90	63.4	1	3	270	0.00	29.528 
09:10	66.6	66.6	66.6	89	63.3	2	5	248	0.00	29.528 
09:15	66.6	66.6	66.6	89	63.3	2	6	248	0.00	29.529 
09:20	66.6	66.6	66.6	88	62.9	2	5	248	0.00	29.529 
09:25	66.6	66.6	66.6	88	62.9	2	4	248	0.00	29.529 
09:30	66.8	66.8	66.8	88	63.1	3	7	248	0.00	29.535 
09:35	66.8	66.8	66.8	88	63.1	2	3	248	0.00	29.535 
09:40	67.1	67.1	67.1	88	63.4	2	6	248	0.00	29.535 
09:45	67.3	67.3	67.3	88	63.6	2	5	248	0.00	29.543 
09:50	67.4	67.4	67.4	86	63.1	2	4	248	0.00	29.543 
09:55	67.3	67.3	67.3	86	63.0	2	4	248	0.00	29.543 
10:00	67.4	67.4	67.4	86	63.1	2	5	248	0.00	29.543 
10:05	67.9	67.9	67.9	85	63.2	2	4	270	0.00	29.543 
10:10	67.9	67.9	67.9	84	62.9	2	4	270	0.00	29.543 
10:15	68.1	68.1	68.1	85	63.4	1	4	270	0.00	29.544 
10:20	67.9	67.9	67.9	84	62.9	2	4	270	0.00	29.544 
10:25	67.6	67.6	67.6	83	62.2	3	5	270	0.00	29.544 
10:30	67.9	67.9	67.9	84	62.9	2	4	292	0.00	29.550 
10:35	68.3	68.3	68.3	83	62.9	2	4	292	0.00	29.550 
10:40	68.6	68.6	68.6	82	62.9	2	3	292	0.00	29.550 
10:45	69.3	69.3	69.3	81	63.2	2	4	338	0.00	29.545 
10:50	69.9	69.9	69.9	79	63.1	1	3	338	0.00	29.545 
10:55	69.6	69.6	69.6	79	62.8	3	5	270	0.00	29.545 
11:00	69.4	69.4	69.4	79	62.6	2	5	315	0.00	29.546 
11:05	69.1	69.1	69.1	79	62.3	2	5	315	0.00	29.546 
11:10	69.4	69.4	69.4	79	62.6	3	9	270	0.00	29.546 
11:15	70.6	70.6	70.6	77	63.0	3	6	315	0.00	29.547 
11:20	70.6	70.6	70.6	74	61.9	2	5	315	0.00	29.547 
11:25	70.1	70.1	70.1	76	62.2	2	4	315	0.00	29.547 
11:30	70.1	70.1	70.1	76	62.2	2	6	270	0.00	29.557 
11:35	71.3	71.3	71.3	76	63.3	2	5	315	0.00	29.557 
11:40	71.5	71.5	71.5	74	62.8	2	4	270	0.00	29.557 
11:45	70.9	70.9	70.9	74	62.2	3	6	248	0.00	29.558 
11:50	70.9	70.9	70.9	74	62.2	2	4	315	0.00	29.558 
11:55	70.9	70.9	70.9	73	61.8	2	4	315	0.00	29.558 
12:00	70.8	70.8	70.8	74	62.1	3	5	270	0.00	29.562 
12:05	70.4	70.4	70.4	75	62.1	2	5	315	0.00	29.562 
12:10	70.3	70.3	70.3	75	62.0	2	5	315	0.00	29.562 
12:15	70.1	70.1	70.1	74	61.4	3	7	315	0.00	29.573 
12:20	70.3	70.3	70.3	75	62.0	3	6	315	0.00	29.573 
12:25	70.4	70.4	70.4	73	61.3	2	4	315	0.00	29.573 
12:30	70.3	70.3	70.3	76	62.4	2	6	292	0.00	29.580 
12:35	70.1	70.1	70.1	76	62.2	2	7	292	0.00	29.580 
12:40	70.1	70.1	70.1	77	62.5	3	5	315	0.00	29.580 
12:45	70.3	70.3	70.3	76	62.4	3	6	270	0.00	29.583 
12:50	70.1	70.1	70.1	76	62.2	3	7	315	0.00	29.583 
12:55	69.9	69.9	69.9	77	62.3	2	4	270	0.00	29.583 
13:00	69.9	69.9	69.9	76	62.0	4	8	270	0.00	29.588 
13:05	70.1	70.1	70.1	77	62.5	3	6	270	0.00	29.588 
13:10	70.4	70.4	70.4	76	62.5	3	6	270	0.00	29.588 
13:15	70.6	70.6	70.6	75	62.3	3	7	270	0.00	29.591 
13:20	70.4	70.4	70.4	75	62.1	2	5	315	0.00	29.591 
13:25	71.1	71.1	71.1	75	62.8	2	7	270	0.00	29.591 
13:30	71.1	71.1	71.1	73	62.0	3	7	270	0.00	29.595 
13:35	71.3	71.3	71.3	73	62.2	2	5	292	0.00	29.595 
13:40	71.5	71.5	71.5	73	62.4	3	7	270	0.00	29.595 
13:45	71.5	71.5	71.5	72	62.0	3	9	270	0.00	29.593 
13:50	71.5	71.5	71.5	74	62.8	2	4	270	0.00	29.593 
13:55	72.1	72.1	72.1	73	63.0	1	5	270	0.00	29.593 
14:00	73.3	73.3	73.3	71	63.3	2	4	338	0.00	29.595 
14:05	73.9	73.9	73.9	67	62.2	3	6	270	0.00	29.595 
14:10	73.5	73.5	73.5	67	61.9	4	7	270	0.00	29.595 
14:15	73.3	73.3	73.3	67	61.7	4	10	270	0.00	29.600 
14:20	73.0	73.0	73.0	67	61.4	3	7	292	0.00	29.600 
14:25	72.7	72.7	72.7	67	61.1	3	6	315	0.00	29.600 
14:30	72.8	72.8	72.8	70	62.4	2	7	292	0.00	29.598 
14:35	73.3	73.3	73.3	69	62.5	2	6	315	0.00	29.598 
14:40	74.0	74.0	74.0	69	63.2	3	6	270	0.00	29.598 
14:45	73.9	73.9	73.9	67	62.2	3	7	270	0.00	29.597 
14:50	74.0	74.0	74.0	68	62.8	3	7	292	0.00	29.597 
14:55	74.0	74.0	74.0	68	62.8	2	5	270	0.00	29.597 
15:00	74.2	74.2	74.2	70	63.8	2	4	292	0.00	29.596 
15:05	74.2	74.2	74.2	67	62.5	2	5	270	0.00	29.596 
15:10	74.4	74.4	74.4	64	61.4	2	7	315	0.00	29.596 
15:15	74.2	74.2	74.2	67	62.5	2	7	292	0.00	29.597 
15:20	74.0	74.0	74.0	67	62.3	2	4	338	0.00	29.597 
15:25	74.2	74.2	74.2	64	61.2	3	5	315	0.00	29.597 
15:30	74.4	74.4	74.4	63	61.0	3	6	315	0.00	29.600 
15:35	74.9	74.9	74.9	64	61.9	3	7	270	0.00	29.600 
15:40	75.4	75.4	77.4	64	62.4	3	6	270	0.00	29.600 
15:45	75.6	75.6	77.7	61	61.2	3	5	270	0.00	29.603 
15:50	74.7	74.7	74.7	61	60.3	3	13	315	0.00	29.603 
15:55	74.6	74.6	74.6	63	61.2	2	5	315	0.00	29.603 
16:00	73.9	73.9	73.9	64	60.9	2	5	292	0.00	29.613 
16:05	73.9	73.9	73.9	66	61.8	2	9	270	0.00	29.613 
16:10	73.9	73.9	73.9	64	60.9	2	6	292	0.00	29.613 
16:15	73.9	73.9	73.9	66	61.8	1	4	292	0.00	29.615 
16:20	73.3	73.3	73.3	66	61.2	2	6	315	0.00	29.615 
16:25	73.3	73.3	73.3	64	60.4	2	5	315	0.00	29.615 
16:30	73.9	73.9	73.9	66	61.8	2	4	270	0.00	29.615 
16:35	74.4	74.4	74.4	63	61.0	2	4	292	0.00	29.615 
16:40	74.0	74.0	74.0	65	61.5	3	6	315	0.00	29.615 
16:45	73.3	73.3	73.3	64	60.4	2	5	270	0.00	29.618 
16:50	73.2	73.2	73.2	66	61.1	2	5	292	0.00	29.618 
16:55	73.5	73.5	73.5	65	61.0	2	5	270	0.00	29.618 
17:00	74.0	74.0	74.0	63	60.6	2	6	270	0.00	29.616 
17:05	74.4	74.4	74.4	62	60.5	3	5	292	0.00	29.616 
17:10	74.6	74.6	74.6	64	61.6	2	5	338	0.00	29.616 
17:15	75.1	75.1	77.3	62	61.2	2	7	270	0.00	29.612 
17:20	75.3	75.3	77.5	61	60.9	3	6	248	0.00	29.612 
17:25	75.3	75.3	77.5	61	60.9	3	5	292	0.00	29.612 
17:30	75.1	75.1	77.3	62	61.2	2	4	270	0.00	29.615 
17:35	75.1	75.1	77.3	62	61.2	3	12	292	0.00	29.615 
17:40	75.1	75.1	77.3	63	61.6	2	5	315	0.00	29.615 
17:45	74.9	74.9	74.9	61	60.5	2	5	315	0.00	29.620 
17:50	74.7	74.7	74.7	62	60.8	2	4	292	0.00	29.620 
17:55	73.9	73.9	73.9	62	60.0	2	6	248	0.00	29.620 
18:00	74.0	74.0	74.0	64	61.0	1	7	292	0.00	29.632 
18:05	74.0	74.0	74.0	62	60.1	2	4	315	0.00	29.632 
18:10	73.7	73.7	73.7	62	59.9	2	5	315	0.00	29.632 
18:15	73.9	73.9	73.9	64	60.9	3	6	270	0.00	29.643 
18:20	73.7	73.7	73.7	66	61.6	2	4	292	0.00	29.643 
18:25	73.7	73.7	73.7	62	59.9	3	6	315	0.00	29.643 
18:30	73.3	73.3	73.3	64	60.4	2	4	292	0.00	29.649 
18:35	73.2	73.2	73.2	64	60.3	2	5	315	0.00	29.649 
18:40	73.5	73.5	73.5	64	60.6	3	6	315	0.00	29.649 
18:45	73.9	73.9	73.9	64	60.9	3	6	270	0.00	29.650 
18:50	73.7	73.7	73.7	63	60.3	2	5	270	0.00	29.650 
18:55	73.5	73.5	73.5	64	60.6	2	7	292	0.00	29.650 
19:00	73.3	73.3	73.3	65	60.8	2	4	292	0.00	29.657 
19:05	73.3	73.3	73.3	65	60.8	1	3	315	0.00	29.657 
19:10	73.2	73.2	73.2	66	61.1	1	2	338	0.00	29.657 
19:15	73.2	73.2	73.2	66	61.1	1	3	315	0.00	29.662 
19:20	73.3	73.3	73.3	66	61.2	2	5	270	0.00	29.662 
19:25	73.2	73.2	73.2	65	60.7	1	4	270	0.00	29.662 
19:30	72.8	72.8	72.8	65	60.3	2	5	292	0.00	29.664 
19:35	72.7	72.7	72.7	66	60.7	2	6	270	0.00	29.664 
19:40	72.7	72.7	72.7	66	60.7	2	4	270	0.00	29.664 
19:45	72.3	72.3	72.3	67	60.7	1	4	338	0.00	29.666 
19:50	72.0	72.0	72.0	68	60.8	1	4	248	0.00	29.666 
19:55	71.8	71.8	71.8	68	60.7	1	2	292	0.00	29.666 
20:00	71.6	71.6	71.6	68	60.5	2	4	292	0.00	29.671 
20:05	71.5	71.5	71.5	68	60.4	2	4	315	0.00	29.671 
20:10	71.5	71.5	71.5	69	60.8	1	3	270	0.00	29.671 
20:15	71.3	71.3	71.3	69	60.6	1	3	270	0.00	29.677 
20:20	71.3	71.3	71.3	69	60.6	1	4	248	0.00	29.677 
20:25	71.1	71.1	71.1	70	60.8	1	4	270	0.00	29.677 
20:30	70.9	70.9	70.9	70	60.6	1	3	270	0.00	29.679 
20:35	70.8	70.8	70.8	70	60.5	1	4	292	0.00	29.679 
20:40	70.8	70.8	70.8	70	60.5	1	3	0	0.00	29.679 
20:45	70.4	70.4	70.4	71	60.5	0	2	338	0.00	29.680 
20:50	70.3	70.3	70.3	70	60.0	1	3	292	0.00	29.680 
20:55	70.1	70.1	70.1	71	60.2	0	2	292	0.00	29.680 
21:00	69.9	69.9	69.9	71	60.1	0	2	315	0.00	29.682 
21:05	69.6	69.6	69.6	72	60.2	0	1	315	0.00	29.682 
21:10	69.3	69.3	69.3	73	60.3	0	1	315	0.00	29.682 
21:15	69.1	69.1	69.1	73	60.1	0	1	315	0.00	29.686 
21:20	68.9	68.9	68.9	73	59.9	0	2	315	0.00	29.686 
21:25	68.9	68.9	68.9	73	59.9	1	2	315	0.00	29.686 
21:30	68.6	68.6	68.6	74	60.0	0	0	---	0.00	29.694 
21:35	68.4	68.4	68.4	74	59.8	0	1	315	0.00	29.694 
21:40	68.3	68.3	68.3	75	60.1	0	1	315	0.00	29.694 
21:45	67.9	67.9	67.9	75	59.7	0	1	315	0.00	29.698 
21:50	67.8	67.8	67.8	76	59.9	0	1	315	0.00	29.698 
21:55	67.4	67.4	67.4	77	59.9	0	0	---	0.00	29.698 
22:00	67.3	67.3	67.3	77	59.8	0	0	---	0.00	29.705 
22:05	67.1	67.1	67.1	78	60.0	0	0	---	0.00	29.705 
22:10	66.8	66.8	66.8	78	59.7	0	0	---	0.00	29.705 
22:15	66.4	66.4	66.4	79	59.7	0	0	---	0.00	29.715 
22:20	66.3	66.3	66.3	80	59.9	0	1	315	0.00	29.715 
22:25	66.3	66.3	66.3	80	59.9	0	1	315	0.00	29.715 
22:30	66.1	66.1	66.1	80	59.7	0	0	---	0.00	29.724 
22:35	66.0	66.0	66.0	80	59.6	0	0	---	0.00	29.724 
22:40	65.6	65.6	65.6	81	59.6	0	0	---	0.00	29.724 
22:45	65.3	65.3	65.3	81	59.3	0	0	---	0.00	29.724 
22:50	65.0	65.0	65.0	82	59.4	0	0	---	0.00	29.724 
22:55	64.7	64.7	64.7	83	59.4	0	0	---	0.00	29.724 
23:00	64.3	64.3	64.3	83	59.0	0	0	---	0.00	29.732 
23:05	64.2	64.2	64.2	84	59.3	0	0	---	0.00	29.732 
23:10	64.0	64.0	64.0	84	59.1	0	1	315	0.00	29.732 
23:15	64.2	64.2	64.2	83	58.9	0	0	---	0.00	29.735 
23:20	64.3	64.3	64.3	82	58.7	0	0	---	0.00	29.735 
23:25	64.3	64.3	64.3	82	58.7	0	1	315	0.00	29.735 
23:30	64.3	64.3	64.3	82	58.7	0	0	---	0.00	29.732 
23:35	64.0	64.0	64.0	82	58.4	0	0	---	0.00	29.732 
23:40	63.7	63.7	63.7	83	58.4	0	0	---	0.00	29.732 
23:45	63.5	63.5	63.5	84	58.6	0	0	---	0.00	29.734 
23:50	63.2	63.2	63.2	84	58.3	0	0	---	0.00	29.734 
23:55	63.1	63.1	63.1	84	58.2	0	0	---	0.00	29.734 

CoCoRaHS
IN-AL-39
A2 Web Hosting
Creative Commons License
GoDaddy
Look for:

loaded 2017-12-13 09:57:39 • last modified 2010-11-18 10:43:29
Privacy PolicyDisclaimer
• wx.awcolley.com is powered by PmWiki v.2002016 •
• all content (unless otherwise noted) © 2017 A W Colley